sensor_id;sensor_type;location;lat;lon;timestamp;pressure;altitude;pressure_sealevel;temperature;humidity
12879;BME280;20617;49.476;10.986;2023-04-10T00:00:21;98990.69;;;8.08;100.00
12879;BME280;20617;49.476;10.986;2023-04-10T00:02:26;98985.56;;;8.05;100.00
12879;BME280;20617;49.476;10.986;2023-04-10T00:04:31;98989.88;;;8.06;100.00
12879;BME280;20617;49.476;10.986;2023-04-10T00:06:36;98984.72;;;8.05;100.00
12879;BME280;20617;49.476;10.986;2023-04-10T00:08:42;98981.25;;;8.06;100.00
12879;BME280;20617;49.476;10.986;2023-04-10T00:10:47;98989.06;;;8.04;100.00
12879;BME280;20617;49.476;10.986;2023-04-10T00:12:58;98986.47;;;8.04;100.00
12879;BME280;20617;49.476;10.986;2023-04-10T00:15:09;98994.22;;;8.06;100.00
12879;BME280;20617;49.476;10.986;2023-04-10T00:17:16;98987.25;;;8.08;100.00
12879;BME280;20617;49.476;10.986;2023-04-10T00:19:22;98989.03;;;8.06;100.00
12879;BME280;20617;49.476;10.986;2023-04-10T00:21:27;98977.84;;;8.04;100.00
12879;BME280;20617;49.476;10.986;2023-04-10T00:23:32;98984.00;;;7.98;100.00
12879;BME280;20617;49.476;10.986;2023-04-10T00:25:37;98976.28;;;7.93;100.00
12879;BME280;20617;49.476;10.986;2023-04-10T00:27:42;98983.28;;;7.91;100.00
12879;BME280;20617;49.476;10.986;2023-04-10T00:29:47;98977.25;;;7.89;100.00
12879;BME280;20617;49.476;10.986;2023-04-10T00:31:52;98979.84;;;7.89;100.00
12879;BME280;20617;49.476;10.986;2023-04-10T00:34:00;98977.25;;;7.89;100.00
12879;BME280;20617;49.476;10.986;2023-04-10T00:36:05;98967.78;;;7.88;100.00
12879;BME280;20617;49.476;10.986;2023-04-10T00:38:11;98962.59;;;7.87;100.00
12879;BME280;20617;49.476;10.986;2023-04-10T00:40:17;98960.91;;;7.86;100.00
12879;BME280;20617;49.476;10.986;2023-04-10T00:42:22;98957.44;;;7.87;100.00
12879;BME280;20617;49.476;10.986;2023-04-10T00:44:28;98946.22;;;7.86;100.00
12879;BME280;20617;49.476;10.986;2023-04-10T00:46:33;98960.94;;;7.84;100.00
12879;BME280;20617;49.476;10.986;2023-04-10T00:48:38;98952.38;;;7.79;100.00
12879;BME280;20617;49.476;10.986;2023-04-10T00:50:47;98958.53;;;7.75;100.00
12879;BME280;20617;49.476;10.986;2023-04-10T00:52:52;98962.06;;;7.71;100.00
12879;BME280;20617;49.476;10.986;2023-04-10T00:54:58;98966.47;;;7.66;100.00
12879;BME280;20617;49.476;10.986;2023-04-10T00:57:03;98964.81;;;7.62;100.00
12879;BME280;20617;49.476;10.986;2023-04-10T00:59:08;98958.00;;;7.56;100.00
12879;BME280;20617;49.476;10.986;2023-04-10T01:01:13;98961.59;;;7.49;100.00
12879;BME280;20617;49.476;10.986;2023-04-10T01:03:19;98966.00;;;7.44;100.00
12879;BME280;20617;49.476;10.986;2023-04-10T01:05:26;98968.75;;;7.35;100.00
12879;BME280;20617;49.476;10.986;2023-04-10T01:07:58;98966.16;;;7.36;100.00
12879;BME280;20617;49.476;10.986;2023-04-10T01:10:14;98961.78;;;7.40;100.00
12879;BME280;20617;49.476;10.986;2023-04-10T01:12:36;98959.09;;;7.44;100.00
12879;BME280;20617;49.476;10.986;2023-04-10T01:14:53;98961.66;;;7.44;100.00
12879;BME280;20617;49.476;10.986;2023-04-10T01:17:06;98962.63;;;7.40;100.00
12879;BME280;20617;49.476;10.986;2023-04-10T01:19:23;98962.81;;;7.30;100.00
12879;BME280;20617;49.476;10.986;2023-04-10T01:21:30;98964.53;;;7.29;100.00
12879;BME280;20617;49.476;10.986;2023-04-10T01:24:06;98960.19;;;7.31;100.00
12879;BME280;20617;49.476;10.986;2023-04-10T01:26:12;98957.63;;;7.31;100.00
12879;BME280;20617;49.476;10.986;2023-04-10T01:28:50;98955.91;;;7.30;100.00
12879;BME280;20617;49.476;10.986;2023-04-10T01:30:58;98952.53;;;7.25;100.00
12879;BME280;20617;49.476;10.986;2023-04-10T01:33:08;98959.47;;;7.23;100.00
12879;BME280;20617;49.476;10.986;2023-04-10T01:35:17;98958.63;;;7.21;100.00
12879;BME280;20617;49.476;10.986;2023-04-10T01:37:26;98961.28;;;7.18;100.00
12879;BME280;20617;49.476;10.986;2023-04-10T01:39:36;98958.69;;;7.19;100.00
12879;BME280;20617;49.476;10.986;2023-04-10T01:41:43;98957.84;;;7.19;100.00
12879;BME280;20617;49.476;10.986;2023-04-10T01:43:52;98961.28;;;7.19;100.00
12879;BME280;20617;49.476;10.986;2023-04-10T01:45:58;98969.03;;;7.19;100.00
12879;BME280;20617;49.476;10.986;2023-04-10T01:48:05;98965.63;;;7.17;100.00
12879;BME280;20617;49.476;10.986;2023-04-10T01:50:14;98962.16;;;7.17;100.00
12879;BME280;20617;49.476;10.986;2023-04-10T01:52:20;98963.06;;;7.16;100.00
12879;BME280;20617;49.476;10.986;2023-04-10T01:54:37;98965.66;;;7.14;100.00
12879;BME280;20617;49.476;10.986;2023-04-10T01:56:50;98972.59;;;7.12;100.00
12879;BME280;20617;49.476;10.986;2023-04-10T01:58:58;98968.31;;;7.10;100.00
12879;BME280;20617;49.476;10.986;2023-04-10T02:01:05;98968.41;;;7.03;100.00
12879;BME280;20617;49.476;10.986;2023-04-10T02:03:27;98966.75;;;7.01;100.00
12879;BME280;20617;49.476;10.986;2023-04-10T02:05:33;98971.09;;;6.99;100.00
12879;BME280;20617;49.476;10.986;2023-04-10T02:07:48;98964.28;;;6.93;100.00
12879;BME280;20617;49.476;10.986;2023-04-10T02:09:58;98966.94;;;6.90;100.00
12879;BME280;20617;49.476;10.986;2023-04-10T02:12:06;98964.41;;;6.87;100.00
12879;BME280;20617;49.476;10.986;2023-04-10T02:14:17;98966.97;;;6.87;100.00
12879;BME280;20617;49.476;10.986;2023-04-10T02:16:24;98969.63;;;6.83;100.00
12879;BME280;20617;49.476;10.986;2023-04-10T02:18:33;98960.97;;;6.85;100.00
12879;BME280;20617;49.476;10.986;2023-04-10T02:20:38;98969.63;;;6.83;100.00
12879;BME280;20617;49.476;10.986;2023-04-10T02:22:43;98965.34;;;6.80;100.00
12879;BME280;20617;49.476;10.986;2023-04-10T02:24:48;98968.88;;;6.76;100.00
12879;BME280;20617;49.476;10.986;2023-04-10T02:26:53;98960.38;;;6.69;100.00
12879;BME280;20617;49.476;10.986;2023-04-10T02:28:58;98964.69;;;6.67;100.00
12879;BME280;20617;49.476;10.986;2023-04-10T02:31:06;98964.66;;;6.70;100.00
12879;BME280;20617;49.476;10.986;2023-04-10T02:33:11;98964.66;;;6.70;100.00
12879;BME280;20617;49.476;10.986;2023-04-10T02:35:18;98967.19;;;6.72;100.00
12879;BME280;20617;49.476;10.986;2023-04-10T02:37:23;98970.63;;;6.74;100.00
12879;BME280;20617;49.476;10.986;2023-04-10T02:39:28;98980.13;;;6.75;100.00
12879;BME280;20617;49.476;10.986;2023-04-10T02:41:33;98977.53;;;6.72;100.00
12879;BME280;20617;49.476;10.986;2023-04-10T02:43:38;98983.66;;;6.69;100.00
12879;BME280;20617;49.476;10.986;2023-04-10T02:45:44;98979.38;;;6.67;100.00
12879;BME280;20617;49.476;10.986;2023-04-10T02:47:58;98975.94;;;6.65;100.00
12879;BME280;20617;49.476;10.986;2023-04-10T02:50:05;98976.81;;;6.64;100.00
12879;BME280;20617;49.476;10.986;2023-04-10T02:52:12;98976.84;;;6.62;100.00
12879;BME280;20617;49.476;10.986;2023-04-10T02:54:21;98984.63;;;6.61;100.00
12879;BME280;20617;49.476;10.986;2023-04-10T02:56:26;98975.13;;;6.60;100.00
12879;BME280;20617;49.476;10.986;2023-04-10T02:58:31;98973.41;;;6.60;100.00
12879;BME280;20617;49.476;10.986;2023-04-10T03:00:37;98974.28;;;6.61;100.00
12879;BME280;20617;49.476;10.986;2023-04-10T03:02:47;98973.44;;;6.57;100.00
12879;BME280;20617;49.476;10.986;2023-04-10T03:04:59;98973.50;;;6.55;100.00
12879;BME280;20617;49.476;10.986;2023-04-10T03:07:04;98979.56;;;6.51;100.00
12879;BME280;20617;49.476;10.986;2023-04-10T03:09:12;98968.31;;;6.54;100.00
12879;BME280;20617;49.476;10.986;2023-04-10T03:11:17;98970.00;;;6.56;100.00
12879;BME280;20617;49.476;10.986;2023-04-10T03:13:22;98963.94;;;6.61;100.00
12879;BME280;20617;49.476;10.986;2023-04-10T03:15:26;98962.16;;;6.63;100.00
12879;BME280;20617;49.476;10.986;2023-04-10T03:17:32;98969.91;;;6.64;100.00
12879;BME280;20617;49.476;10.986;2023-04-10T03:19:39;98967.28;;;6.66;100.00
12879;BME280;20617;49.476;10.986;2023-04-10T03:21:47;98968.16;;;6.66;100.00
12879;BME280;20617;49.476;10.986;2023-04-10T03:23:52;98962.16;;;6.64;100.00
12879;BME280;20617;49.476;10.986;2023-04-10T03:25:57;98970.75;;;6.65;100.00
12879;BME280;20617;49.476;10.986;2023-04-10T03:28:05;98967.38;;;6.60;100.00
12879;BME280;20617;49.476;10.986;2023-04-10T03:30:10;98964.84;;;6.58;100.00
12879;BME280;20617;49.476;10.986;2023-04-10T03:32:16;98970.91;;;6.55;100.00
12879;BME280;20617;49.476;10.986;2023-04-10T03:34:21;98959.81;;;6.49;100.00
12879;BME280;20617;49.476;10.986;2023-04-10T03:36:26;98960.69;;;6.45;100.00
12879;BME280;20617;49.476;10.986;2023-04-10T03:38:34;98964.22;;;6.39;100.00
12879;BME280;20617;49.476;10.986;2023-04-10T03:40:41;98962.56;;;6.35;100.00
12879;BME280;20617;49.476;10.986;2023-04-10T03:42:46;98970.38;;;6.30;100.00
12879;BME280;20617;49.476;10.986;2023-04-10T03:44:52;98963.56;;;6.25;100.00
12879;BME280;20617;49.476;10.986;2023-04-10T03:46:57;98961.91;;;6.21;100.00
12879;BME280;20617;49.476;10.986;2023-04-10T03:49:02;98960.25;;;6.15;100.00
12879;BME280;20617;49.476;10.986;2023-04-10T03:51:08;98962.03;;;6.10;100.00
12879;BME280;20617;49.476;10.986;2023-04-10T03:53:13;98956.97;;;6.01;100.00
12879;BME280;20617;49.476;10.986;2023-04-10T03:55:22;98954.44;;;5.98;100.00
12879;BME280;20617;49.476;10.986;2023-04-10T03:57:27;98954.47;;;5.95;100.00
12879;BME280;20617;49.476;10.986;2023-04-10T03:59:37;98960.50;;;5.92;100.00
12879;BME280;20617;49.476;10.986;2023-04-10T04:01:46;98959.66;;;5.95;100.00
12879;BME280;20617;49.476;10.986;2023-04-10T04:03:51;98957.06;;;5.93;100.00
12879;BME280;20617;49.476;10.986;2023-04-10T04:06:15;98967.44;;;5.88;100.00
12879;BME280;20617;49.476;10.986;2023-04-10T04:08:49;98956.19;;;5.93;100.00
12879;BME280;20617;49.476;10.986;2023-04-10T04:11:15;98958.75;;;5.97;100.00
12879;BME280;20617;49.476;10.986;2023-04-10T04:13:28;98951.84;;;5.99;100.00
12879;BME280;20617;49.476;10.986;2023-04-10T04:15:40;98961.31;;;6.00;100.00
12879;BME280;20617;49.476;10.986;2023-04-10T04:17:51;98960.41;;;6.03;100.00
12879;BME280;20617;49.476;10.986;2023-04-10T04:20:14;98958.69;;;6.03;100.00
12879;BME280;20617;49.476;10.986;2023-04-10T04:22:41;98959.53;;;6.04;100.00
12879;BME280;20617;49.476;10.986;2023-04-10T04:25:08;98957.78;;;6.04;100.00
12879;BME280;20617;49.476;10.986;2023-04-10T04:27:36;98964.69;;;6.05;100.00
12879;BME280;20617;49.476;10.986;2023-04-10T04:29:55;98968.13;;;6.06;100.00
12879;BME280;20617;49.476;10.986;2023-04-10T04:32:17;98968.97;;;6.08;100.00
12879;BME280;20617;49.476;10.986;2023-04-10T04:34:34;98963.81;;;6.08;100.00
12879;BME280;20617;49.476;10.986;2023-04-10T04:36:46;98968.97;;;6.06;100.00
12879;BME280;20617;49.476;10.986;2023-04-10T04:39:09;98975.03;;;6.05;100.00
12879;BME280;20617;49.476;10.986;2023-04-10T04:41:28;98975.06;;;6.02;100.00
12879;BME280;20617;49.476;10.986;2023-04-10T04:43:46;98975.97;;;6.00;100.00
12879;BME280;20617;49.476;10.986;2023-04-10T04:46:18;98976.00;;;5.95;100.00
12879;BME280;20617;49.476;10.986;2023-04-10T04:48:30;98982.06;;;5.94;100.00
12879;BME280;20617;49.476;10.986;2023-04-10T04:50:45;98983.78;;;5.94;100.00
12879;BME280;20617;49.476;10.986;2023-04-10T04:53:16;98988.06;;;5.95;100.00
12879;BME280;20617;49.476;10.986;2023-04-10T04:55:35;98985.44;;;5.96;100.00
12879;BME280;20617;49.476;10.986;2023-04-10T04:57:52;98988.91;;;5.97;100.00
12879;BME280;20617;49.476;10.986;2023-04-10T05:00:22;98987.22;;;5.91;100.00
12879;BME280;20617;49.476;10.986;2023-04-10T05:02:40;98989.81;;;5.91;100.00
12879;BME280;20617;49.476;10.986;2023-04-10T05:05:04;98996.72;;;5.90;100.00
12879;BME280;20617;49.476;10.986;2023-04-10T05:07:24;98995.00;;;5.86;100.00
12879;BME280;20617;49.476;10.986;2023-04-10T05:09:40;98992.47;;;5.83;100.00
12879;BME280;20617;49.476;10.986;2023-04-10T05:11:54;99001.06;;;5.84;100.00
12879;BME280;20617;49.476;10.986;2023-04-10T05:14:20;99005.41;;;5.82;100.00
12879;BME280;20617;49.476;10.986;2023-04-10T05:16:36;99005.38;;;5.83;100.00
12879;BME280;20617;49.476;10.986;2023-04-10T05:19:15;99006.16;;;5.90;100.00
12879;BME280;20617;49.476;10.986;2023-04-10T05:21:39;99007.91;;;5.91;100.00
12879;BME280;20617;49.476;10.986;2023-04-10T05:23:57;99000.16;;;5.91;100.00
12879;BME280;20617;49.476;10.986;2023-04-10T05:26:10;99004.41;;;5.95;100.00
12879;BME280;20617;49.476;10.986;2023-04-10T05:28:47;98995.81;;;5.90;100.00
12879;BME280;20617;49.476;10.986;2023-04-10T05:31:07;99005.28;;;5.93;100.00
12879;BME280;20617;49.476;10.986;2023-04-10T05:33:26;98998.38;;;5.98;100.00
12879;BME280;20617;49.476;10.986;2023-04-10T05:36:07;98993.25;;;5.95;100.00
12879;BME280;20617;49.476;10.986;2023-04-10T05:38:30;98991.50;;;5.92;100.00
12879;BME280;20617;49.476;10.986;2023-04-10T05:41:12;98985.53;;;5.88;100.00
12879;BME280;20617;49.476;10.986;2023-04-10T05:43:41;98986.38;;;5.89;100.00
12879;BME280;20617;49.476;10.986;2023-04-10T05:45:54;98989.78;;;5.93;100.00
12879;BME280;20617;49.476;10.986;2023-04-10T05:48:17;98997.53;;;5.97;100.00
12879;BME280;20617;49.476;10.986;2023-04-10T05:50:43;99001.69;;;6.07;100.00
12879;BME280;20617;49.476;10.986;2023-04-10T05:53:05;99001.56;;;6.17;100.00
12879;BME280;20617;49.476;10.986;2023-04-10T05:55:31;98993.72;;;6.26;100.00
12879;BME280;20617;49.476;10.986;2023-04-10T05:57:54;98985.09;;;6.28;100.00
12879;BME280;20617;49.476;10.986;2023-04-10T06:00:19;98986.69;;;6.34;100.00
12879;BME280;20617;49.476;10.986;2023-04-10T06:02:59;98990.16;;;6.33;100.00
12879;BME280;20617;49.476;10.986;2023-04-10T06:05:07;98986.69;;;6.37;100.00
12879;BME280;20617;49.476;10.986;2023-04-10T06:07:15;98990.03;;;6.42;100.00
12879;BME280;20617;49.476;10.986;2023-04-10T06:09:20;98997.72;;;6.48;100.00
12879;BME280;20617;49.476;10.986;2023-04-10T06:11:25;98987.28;;;6.56;100.00
12879;BME280;20617;49.476;10.986;2023-04-10T06:13:32;98987.13;;;6.67;100.00
12879;BME280;20617;49.476;10.986;2023-04-10T06:15:37;98978.38;;;6.75;100.00
12879;BME280;20617;49.476;10.986;2023-04-10T06:17:43;98982.63;;;6.79;100.00
12879;BME280;20617;49.476;10.986;2023-04-10T06:19:49;98980.88;;;6.82;100.00
12879;BME280;20617;49.476;10.986;2023-04-10T06:21:54;98974.81;;;6.83;100.00
12879;BME280;20617;49.476;10.986;2023-04-10T06:24:01;98981.59;;;6.90;100.00
12879;BME280;20617;49.476;10.986;2023-04-10T06:26:06;98978.94;;;6.94;100.00
12879;BME280;20617;49.476;10.986;2023-04-10T06:28:11;98979.72;;;6.99;100.00
12879;BME280;20617;49.476;10.986;2023-04-10T06:30:19;98975.22;;;7.09;100.00
12879;BME280;20617;49.476;10.986;2023-04-10T06:32:25;98981.09;;;7.22;100.00
12879;BME280;20617;49.476;10.986;2023-04-10T06:34:30;98973.16;;;7.30;100.00
12879;BME280;20617;49.476;10.986;2023-04-10T06:36:38;98977.38;;;7.35;100.00
12879;BME280;20617;49.476;10.986;2023-04-10T06:38:43;98979.91;;;7.40;100.00
12879;BME280;20617;49.476;10.986;2023-04-10T06:40:50;98973.03;;;7.37;100.00
12879;BME280;20617;49.476;10.986;2023-04-10T06:42:56;98968.72;;;7.38;100.00
12879;BME280;20617;49.476;10.986;2023-04-10T06:45:08;98972.81;;;7.49;100.00
12879;BME280;20617;49.476;10.986;2023-04-10T06:47:13;98964.81;;;7.62;100.00
12879;BME280;20617;49.476;10.986;2023-04-10T06:49:19;98976.69;;;7.74;100.00
12879;BME280;20617;49.476;10.986;2023-04-10T06:51:25;98972.19;;;7.83;100.00
12879;BME280;20617;49.476;10.986;2023-04-10T06:53:30;98970.25;;;7.93;100.00
12879;BME280;20617;49.476;10.986;2023-04-10T06:55:35;98966.69;;;7.99;100.00
12879;BME280;20617;49.476;10.986;2023-04-10T06:57:42;98971.81;;;8.02;100.00
12879;BME280;20617;49.476;10.986;2023-04-10T06:59:47;98970.84;;;8.07;100.00
12879;BME280;20617;49.476;10.986;2023-04-10T07:01:52;98975.91;;;8.13;100.00
12879;BME280;20617;49.476;10.986;2023-04-10T07:03:57;98973.09;;;8.24;100.00
12879;BME280;20617;49.476;10.986;2023-04-10T07:06:02;98981.69;;;8.26;100.00
12879;BME280;20617;49.476;10.986;2023-04-10T07:08:09;98972.81;;;8.36;100.00
12879;BME280;20617;49.476;10.986;2023-04-10T07:10:13;98975.25;;;8.46;100.00
12879;BME280;20617;49.476;10.986;2023-04-10T07:12:18;98964.69;;;8.53;100.00
12879;BME280;20617;49.476;10.986;2023-04-10T07:14:26;98964.19;;;8.75;100.00
12879;BME280;20617;49.476;10.986;2023-04-10T07:16:31;98962.34;;;9.16;100.00
12879;BME280;20617;49.476;10.986;2023-04-10T07:18:36;98960.03;;;9.72;100.00
12879;BME280;20617;49.476;10.986;2023-04-10T07:20:42;98955.06;;;10.24;100.00
12879;BME280;20617;49.476;10.986;2023-04-10T07:22:47;98948.56;;;10.68;100.00
12879;BME280;20617;49.476;10.986;2023-04-10T07:24:52;98948.38;;;11.01;100.00
12879;BME280;20617;49.476;10.986;2023-04-10T07:26:57;98942.34;;;11.25;100.00
12879;BME280;20617;49.476;10.986;2023-04-10T07:29:02;98947.91;;;11.41;100.00
12879;BME280;20617;49.476;10.986;2023-04-10T07:31:10;98951.88;;;11.76;100.00
12879;BME280;20617;49.476;10.986;2023-04-10T07:33:16;98942.78;;;11.88;100.00
12879;BME280;20617;49.476;10.986;2023-04-10T07:35:22;98934.84;;;11.91;100.00
12879;BME280;20617;49.476;10.986;2023-04-10T07:37:41;98935.38;;;11.76;100.00
12879;BME280;20617;49.476;10.986;2023-04-10T07:39:46;98933.97;;;11.66;100.00
12879;BME280;20617;49.476;10.986;2023-04-10T07:41:52;98928.19;;;11.57;100.00
12879;BME280;20617;49.476;10.986;2023-04-10T07:43:57;98925.13;;;11.46;100.00
12879;BME280;20617;49.476;10.986;2023-04-10T07:46:02;98923.22;;;11.26;100.00
12879;BME280;20617;49.476;10.986;2023-04-10T07:48:07;98920.84;;;11.19;100.00
12879;BME280;20617;49.476;10.986;2023-04-10T07:50:12;98925.47;;;11.10;100.00
12879;BME280;20617;49.476;10.986;2023-04-10T07:52:17;98924.50;;;11.13;100.00
12879;BME280;20617;49.476;10.986;2023-04-10T07:54:24;98917.66;;;11.10;100.00
12879;BME280;20617;49.476;10.986;2023-04-10T07:56:29;98920.16;;;11.14;100.00
12879;BME280;20617;49.476;10.986;2023-04-10T07:58:34;98922.81;;;11.12;100.00
12879;BME280;20617;49.476;10.986;2023-04-10T08:00:40;98920.25;;;11.10;100.00
12879;BME280;20617;49.476;10.986;2023-04-10T08:02:45;98923.97;;;11.03;100.00
12879;BME280;20617;49.476;10.986;2023-04-10T08:04:50;98921.09;;;11.11;100.00
12879;BME280;20617;49.476;10.986;2023-04-10T08:06:56;98919.16;;;11.18;100.00
12879;BME280;20617;49.476;10.986;2023-04-10T08:09:01;98918.41;;;11.14;100.00
12879;BME280;20617;49.476;10.986;2023-04-10T08:11:21;98922.72;;;11.15;100.00
12879;BME280;20617;49.476;10.986;2023-04-10T08:13:27;98913.75;;;11.24;100.00
12879;BME280;20617;49.476;10.986;2023-04-10T08:15:32;98913.66;;;11.25;100.00
12879;BME280;20617;49.476;10.986;2023-04-10T08:17:37;98919.69;;;11.27;100.00
12879;BME280;20617;49.476;10.986;2023-04-10T08:19:42;98913.38;;;11.35;100.00
12879;BME280;20617;49.476;10.986;2023-04-10T08:21:47;98916.63;;;11.41;100.00
12879;BME280;20617;49.476;10.986;2023-04-10T08:23:52;98923.25;;;11.50;100.00
12879;BME280;20617;49.476;10.986;2023-04-10T08:25:57;98918.03;;;11.50;100.00
12879;BME280;20617;49.476;10.986;2023-04-10T08:28:05;98922.22;;;11.54;100.00
12879;BME280;20617;49.476;10.986;2023-04-10T08:30:12;98914.38;;;11.55;100.00
12879;BME280;20617;49.476;10.986;2023-04-10T08:32:17;98916.91;;;11.57;100.00
12879;BME280;20617;49.476;10.986;2023-04-10T08:34:22;98918.78;;;11.53;100.00
12879;BME280;20617;49.476;10.986;2023-04-10T08:36:28;98912.50;;;11.59;100.00
12879;BME280;20617;49.476;10.986;2023-04-10T08:38:33;98903.53;;;11.66;100.00
12879;BME280;20617;49.476;10.986;2023-04-10T08:40:38;98906.00;;;11.71;100.00
12879;BME280;20617;49.476;10.986;2023-04-10T08:42:43;98908.47;;;11.74;100.00
12879;BME280;20617;49.476;10.986;2023-04-10T08:44:51;98910.94;;;11.78;100.00
12879;BME280;20617;49.476;10.986;2023-04-10T08:46:58;98899.97;;;11.94;100.00
12879;BME280;20617;49.476;10.986;2023-04-10T08:49:04;98904.56;;;12.11;100.00
12879;BME280;20617;49.476;10.986;2023-04-10T08:51:12;98899.94;;;12.17;100.00
12879;BME280;20617;49.476;10.986;2023-04-10T08:53:22;98894.56;;;12.22;100.00
12879;BME280;20617;49.476;10.986;2023-04-10T08:55:28;98891.03;;;12.23;100.00
12879;BME280;20617;49.476;10.986;2023-04-10T08:57:35;98895.03;;;12.32;100.00
12879;BME280;20617;49.476;10.986;2023-04-10T08:59:51;98894.88;;;12.36;100.00
12879;BME280;20617;49.476;10.986;2023-04-10T09:01:57;98899.91;;;12.41;100.00
12879;BME280;20617;49.476;10.986;2023-04-10T09:04:02;98902.22;;;12.49;100.00
12879;BME280;20617;49.476;10.986;2023-04-10T09:06:08;98893.34;;;12.53;100.00
12879;BME280;20617;49.476;10.986;2023-04-10T09:08:14;98891.41;;;12.58;100.00
12879;BME280;20617;49.476;10.986;2023-04-10T09:10:19;98892.97;;;12.62;100.00
12879;BME280;20617;49.476;10.986;2023-04-10T09:12:23;98886.84;;;12.63;100.00
12879;BME280;20617;49.476;10.986;2023-04-10T09:14:30;98882.34;;;12.66;100.00
12879;BME280;20617;49.476;10.986;2023-04-10T09:16:38;98881.25;;;12.72;100.00
12879;BME280;20617;49.476;10.986;2023-04-10T09:18:44;98872.97;;;12.83;100.00
12879;BME280;20617;49.476;10.986;2023-04-10T09:20:49;98875.91;;;12.96;100.00
12879;BME280;20617;49.476;10.986;2023-04-10T09:22:55;98872.91;;;13.05;100.00
12879;BME280;20617;49.476;10.986;2023-04-10T09:25:01;98865.59;;;13.13;100.00
12879;BME280;20617;49.476;10.986;2023-04-10T09:27:06;98859.13;;;13.22;100.00
12879;BME280;20617;49.476;10.986;2023-04-10T09:29:12;98865.09;;;13.25;100.00
12879;BME280;20617;49.476;10.986;2023-04-10T09:31:30;98865.91;;;13.27;100.00
12879;BME280;20617;49.476;10.986;2023-04-10T09:33:38;98860.25;;;13.36;100.00
12879;BME280;20617;49.476;10.986;2023-04-10T09:35:43;98854.47;;;13.30;100.00
12879;BME280;20617;49.476;10.986;2023-04-10T09:37:48;98849.63;;;13.41;100.00
12879;BME280;20617;49.476;10.986;2023-04-10T09:39:53;98853.00;;;13.43;100.00
12879;BME280;20617;49.476;10.986;2023-04-10T09:41:58;98850.09;;;13.49;100.00
12879;BME280;20617;49.476;10.986;2023-04-10T09:44:07;98845.75;;;13.50;100.00
12879;BME280;20617;49.476;10.986;2023-04-10T09:46:24;98852.56;;;13.52;100.00
12879;BME280;20617;49.476;10.986;2023-04-10T09:48:30;98844.25;;;13.63;100.00
12879;BME280;20617;49.476;10.986;2023-04-10T09:50:38;98841.44;;;13.68;100.00
12879;BME280;20617;49.476;10.986;2023-04-10T09:52:44;98833.00;;;13.61;100.00
12879;BME280;20617;49.476;10.986;2023-04-10T09:54:49;98829.25;;;13.67;100.00
12879;BME280;20617;49.476;10.986;2023-04-10T09:56:54;98818.13;;;13.82;100.00
12879;BME280;20617;49.476;10.986;2023-04-10T09:59:00;98820.66;;;13.84;100.00
12879;BME280;20617;49.476;10.986;2023-04-10T10:01:06;98811.47;;;13.94;99.04
12879;BME280;20617;49.476;10.986;2023-04-10T10:03:12;98811.03;;;14.03;97.74
12879;BME280;20617;49.476;10.986;2023-04-10T10:05:17;98803.66;;;14.11;97.24
12879;BME280;20617;49.476;10.986;2023-04-10T10:07:26;98796.78;;;14.09;96.51
12879;BME280;20617;49.476;10.986;2023-04-10T10:09:34;98788.84;;;14.10;97.77
12879;BME280;20617;49.476;10.986;2023-04-10T10:11:40;98799.97;;;14.15;97.85
12879;BME280;20617;49.476;10.986;2023-04-10T10:13:48;98791.31;;;14.13;95.22
12879;BME280;20617;49.476;10.986;2023-04-10T10:16:00;98797.97;;;14.20;95.30
12879;BME280;20617;49.476;10.986;2023-04-10T10:18:15;98791.94;;;14.18;93.89
12879;BME280;20617;49.476;10.986;2023-04-10T10:20:23;98784.59;;;14.26;93.71
12879;BME280;20617;49.476;10.986;2023-04-10T10:22:32;98785.97;;;14.34;93.15
12879;BME280;20617;49.476;10.986;2023-04-10T10:24:39;98779.66;;;14.38;93.20
12879;BME280;20617;49.476;10.986;2023-04-10T10:26:50;98775.44;;;14.35;92.43
12879;BME280;20617;49.476;10.986;2023-04-10T10:28:57;98767.56;;;14.35;90.13
12879;BME280;20617;49.476;10.986;2023-04-10T10:31:03;98767.13;;;14.44;88.13
12879;BME280;20617;49.476;10.986;2023-04-10T10:33:09;98762.88;;;14.42;87.83
12879;BME280;20617;49.476;10.986;2023-04-10T10:35:16;98767.75;;;14.49;88.34
12879;BME280;20617;49.476;10.986;2023-04-10T10:37:24;98761.28;;;14.57;87.30
12879;BME280;20617;49.476;10.986;2023-04-10T10:39:41;98760.13;;;14.62;88.01
12879;BME280;20617;49.476;10.986;2023-04-10T10:41:55;98748.75;;;14.63;88.02
12879;BME280;20617;49.476;10.986;2023-04-10T10:44:09;98742.41;;;14.67;88.04
12879;BME280;20617;49.476;10.986;2023-04-10T10:46:22;98745.97;;;14.66;86.97
12879;BME280;20617;49.476;10.986;2023-04-10T10:48:28;98743.03;;;14.73;87.29
12879;BME280;20617;49.476;10.986;2023-04-10T10:50:51;98752.03;;;14.84;86.34
12879;BME280;20617;49.476;10.986;2023-04-10T10:52:58;98747.47;;;14.88;86.34
12879;BME280;20617;49.476;10.986;2023-04-10T10:55:29;98733.19;;;14.93;85.94
12879;BME280;20617;49.476;10.986;2023-04-10T10:57:45;98727.56;;;15.01;85.76
12879;BME280;20617;49.476;10.986;2023-04-10T10:59:53;98730.78;;;15.06;83.90
12879;BME280;20617;49.476;10.986;2023-04-10T11:02:12;98719.59;;;15.03;83.24
12879;BME280;20617;49.476;10.986;2023-04-10T11:04:42;98723.84;;;15.05;84.61
12879;BME280;20617;49.476;10.986;2023-04-10T11:06:49;98719.22;;;15.10;83.48
12879;BME280;20617;49.476;10.986;2023-04-10T11:08:54;98713.72;;;15.15;81.94
12879;BME280;20617;49.476;10.986;2023-04-10T11:11:03;98708.91;;;15.23;81.67
12879;BME280;20617;49.476;10.986;2023-04-10T11:13:16;98718.31;;;15.27;78.59
12879;BME280;20617;49.476;10.986;2023-04-10T11:15:22;98709.41;;;15.30;79.03
12879;BME280;20617;49.476;10.986;2023-04-10T11:17:46;98695.13;;;15.35;78.67